createdAt,value
2024-04-05T00:02:14.125Z,10.20
2024-04-05T00:07:12.133Z,8.80
2024-04-05T00:09:45.410Z,10.10
2024-04-05T00:12:14.611Z,12.20
2024-04-05T00:17:12.118Z,9.20
2024-04-05T00:19:43.309Z,8.50
2024-04-05T00:22:11.797Z,11.30
2024-04-05T00:24:40.364Z,8.80
2024-04-05T00:27:09.279Z,9.60
2024-04-05T00:29:37.809Z,8.60
2024-04-05T00:32:07.024Z,11.30
2024-04-05T00:34:36.154Z,13.00
2024-04-05T00:37:04.827Z,15.10
2024-04-05T00:39:33.327Z,11.90
2024-04-05T00:42:02.478Z,11.30
2024-04-05T00:44:31.531Z,10.90
2024-04-05T00:46:59.850Z,10.20
2024-04-05T00:49:28.804Z,12.70
2024-04-05T00:54:26.498Z,18.90
2024-04-05T00:56:55.537Z,13.60
2024-04-05T00:59:25.522Z,12.80
2024-04-05T01:01:54.107Z,16.70
2024-04-05T01:06:52.276Z,10.90
2024-04-05T01:09:22.079Z,10.80
2024-04-05T01:11:57.603Z,11.50
2024-04-05T01:14:27.028Z,11.50
2024-04-05T01:16:56.209Z,13.50
2024-04-05T01:19:24.958Z,9.70
2024-04-05T01:24:22.054Z,12.60
2024-04-05T01:26:51.009Z,14.30
2024-04-05T01:29:19.552Z,14.40
2024-04-05T01:34:17.612Z,12.10
2024-04-05T01:36:46.712Z,11.10
2024-04-05T01:39:15.422Z,13.80
2024-04-05T01:41:43.778Z,10.10
2024-04-05T01:44:13.177Z,14.20
2024-04-05T01:46:42.861Z,11.90
2024-04-05T01:49:12.048Z,13.20
2024-04-05T01:51:41.098Z,13.70
2024-04-05T01:54:09.640Z,13.00
2024-04-05T01:56:38.376Z,15.50
2024-04-05T01:59:06.886Z,14.80
2024-04-05T02:04:04.941Z,21.50
2024-04-05T02:06:33.554Z,22.30
2024-04-05T02:09:02.795Z,25.10
2024-04-05T02:11:31.452Z,19.50
2024-04-05T02:14:00.442Z,15.20
2024-04-05T02:16:29.410Z,14.60
2024-04-05T02:18:57.772Z,19.80
2024-04-05T02:23:54.532Z,15.70
2024-04-05T02:26:23.746Z,12.70
2024-04-05T02:28:52.205Z,12.70
2024-04-05T02:33:49.054Z,17.60
2024-04-05T02:36:18.272Z,17.50
2024-04-05T02:38:47.540Z,17.00
2024-04-05T02:41:17.065Z,10.50
2024-04-05T02:43:46.294Z,17.00
2024-04-05T02:46:14.739Z,22.40
2024-04-05T02:51:11.906Z,22.00
2024-04-05T02:53:41.119Z,13.70
2024-04-05T02:56:12.283Z,17.30
2024-04-05T02:58:40.948Z,13.50
2024-04-05T03:01:09.734Z,14.80
2024-04-05T03:03:38.118Z,14.40
2024-04-05T03:06:06.457Z,14.00
2024-04-05T03:11:04.152Z,16.70
2024-04-05T03:13:33.181Z,16.50
2024-04-05T03:16:02.629Z,13.00
2024-04-05T03:18:33.063Z,24.40
2024-04-05T03:21:01.542Z,26.10
2024-04-05T03:25:59.306Z,18.70
2024-04-05T03:28:28.291Z,15.20
2024-04-05T03:30:57.516Z,15.10
2024-04-05T03:33:26.608Z,20.00
2024-04-05T03:38:24.460Z,18.90
2024-04-05T03:40:53.623Z,22.50
2024-04-05T03:43:22.864Z,30.60
2024-04-05T03:45:51.276Z,23.20
2024-04-05T03:50:48.721Z,23.60
2024-04-05T03:53:17.279Z,31.70
2024-04-05T03:58:14.970Z,32.00
2024-04-05T04:00:50.572Z,21.90
2024-04-05T04:03:19.817Z,27.80
2024-04-05T04:05:48.964Z,30.10
2024-04-05T04:08:17.656Z,29.70
2024-04-05T04:10:46.244Z,37.60
2024-04-05T04:13:15.702Z,49.40
2024-04-05T04:15:45.033Z,45.20
2024-04-05T04:18:13.841Z,51.40
2024-04-05T04:20:42.976Z,37.40
2024-04-05T04:25:41.255Z,30.50
2024-04-05T04:28:11.391Z,27.70
2024-04-05T04:30:40.490Z,28.50
2024-04-05T04:33:12.089Z,19.20
2024-04-05T04:35:44.574Z,19.40
2024-04-05T04:38:13.180Z,21.60
2024-04-05T04:40:42.978Z,18.10
2024-04-05T04:43:11.452Z,27.00
2024-04-05T04:45:39.790Z,25.50
2024-04-05T04:48:08.603Z,21.80
2024-04-05T04:50:37.337Z,19.90
2024-04-05T04:53:05.947Z,33.30
2024-04-05T04:55:36.751Z,26.50
2024-04-05T04:58:06.607Z,37.30
2024-04-05T05:00:35.456Z,31.00
2024-04-05T05:03:03.866Z,36.90
2024-04-05T05:05:32.619Z,44.80
2024-04-05T05:10:30.147Z,41.60
2024-04-05T05:13:00.333Z,41.20
2024-04-05T05:15:28.490Z,40.70
2024-04-05T05:17:56.730Z,33.00
2024-04-05T05:22:57.341Z,27.10
2024-04-05T05:25:25.683Z,28.50
2024-04-05T05:27:54.200Z,18.20
2024-04-05T05:30:23.547Z,18.00
2024-04-05T05:32:54.709Z,24.50
2024-04-05T05:35:23.914Z,16.70
2024-04-05T05:37:51.969Z,23.70
2024-04-05T05:40:19.921Z,20.90
2024-04-05T05:42:48.987Z,21.00
2024-04-05T05:45:17.382Z,16.80
2024-04-05T05:50:15.174Z,18.50
2024-04-05T05:52:43.756Z,18.70
2024-04-05T05:55:12.070Z,22.00
2024-04-05T06:00:11.560Z,21.70
2024-04-05T06:02:40.764Z,20.00
2024-04-05T06:05:16.031Z,21.90
2024-04-05T06:07:45.127Z,24.40
2024-04-05T06:10:20.944Z,31.00
2024-04-05T06:12:53.202Z,36.10
2024-04-05T06:15:25.838Z,21.50
2024-04-05T06:17:56.290Z,17.10
2024-04-05T06:20:27.089Z,18.90
2024-04-05T06:22:57.690Z,19.70
2024-04-05T06:25:25.962Z,13.60
2024-04-05T06:27:56.497Z,18.40
2024-04-05T06:30:24.765Z,25.40
2024-04-05T06:32:53.716Z,28.40
2024-04-05T06:35:21.960Z,16.20
2024-04-05T06:37:50.786Z,26.50
2024-04-05T06:40:18.963Z,25.20
2024-04-05T06:42:47.448Z,21.30
2024-04-05T06:45:15.830Z,17.70
2024-04-05T06:47:44.152Z,33.40
2024-04-05T06:50:12.439Z,24.40
2024-04-05T06:52:40.455Z,22.40
2024-04-05T06:57:38.732Z,22.70
2024-04-05T07:00:07.940Z,25.10
2024-04-05T07:02:36.120Z,21.10
2024-04-05T07:05:04.594Z,16.30
2024-04-05T07:07:32.775Z,16.20
2024-04-05T07:10:00.913Z,15.30
2024-04-05T07:12:29.433Z,17.50
2024-04-05T07:14:58.691Z,22.20
2024-04-05T07:17:27.456Z,16.80
2024-04-05T07:19:56.309Z,21.70
2024-04-05T07:22:26.208Z,18.40
2024-04-05T07:24:55.751Z,13.50
2024-04-05T07:27:25.628Z,17.80
2024-04-05T07:29:55.344Z,17.90
2024-04-05T07:32:26.235Z,15.00
2024-04-05T07:34:55.465Z,12.00
2024-04-05T07:37:23.772Z,13.80
2024-04-05T07:39:52.187Z,14.80
2024-04-05T07:42:20.812Z,12.00
2024-04-05T07:44:48.901Z,10.50
2024-04-05T07:47:17.316Z,23.90
2024-04-05T07:49:45.587Z,17.60
2024-04-05T07:52:14.659Z,10.80
2024-04-05T07:54:46.580Z,9.20
2024-04-05T07:57:15.093Z,10.10
2024-04-05T07:59:48.472Z,13.30
2024-04-05T08:02:17.831Z,10.40
2024-04-05T08:04:46.282Z,7.10
2024-04-05T08:07:14.625Z,10.40
2024-04-05T08:09:44.839Z,8.70
2024-04-05T08:12:13.679Z,9.10
2024-04-05T08:14:43.653Z,9.50
2024-04-05T08:17:13.915Z,12.10
2024-04-05T08:19:42.841Z,10.60
2024-04-05T08:22:13.972Z,7.40
2024-04-05T08:25:08.721Z,8.20
2024-04-05T08:27:38.045Z,10.50
2024-04-05T08:30:07.674Z,8.20
2024-04-05T08:32:44.619Z,12.90
2024-04-05T08:35:14.858Z,10.40
2024-04-05T08:37:44.818Z,10.80
2024-04-05T08:43:18.195Z,5.60
2024-04-05T08:45:56.918Z,8.20
2024-04-05T08:48:26.723Z,6.90
2024-04-05T08:50:55.608Z,9.60
2024-04-05T08:53:23.697Z,6.40
2024-04-05T08:58:19.684Z,86.70
2024-04-05T09:00:48.567Z,9.70
2024-04-05T09:03:16.473Z,10.60
2024-04-05T09:05:46.202Z,6.60
2024-04-05T09:08:14.961Z,9.90
2024-04-05T09:10:50.349Z,15.40
2024-04-05T09:13:18.864Z,13.90
2024-04-05T09:15:53.406Z,6.10
2024-04-05T09:20:53.377Z,7.60
2024-04-05T09:23:23.471Z,8.60
2024-04-05T09:26:02.618Z,4.00
2024-04-05T09:28:30.991Z,7.90
2024-04-05T09:31:01.112Z,6.20
2024-04-05T09:33:30.393Z,10.90
2024-04-05T09:35:59.390Z,12.50
2024-04-05T09:38:27.368Z,14.00
2024-04-05T09:40:55.372Z,7.40
2024-04-05T09:45:52.851Z,6.10
2024-04-05T09:48:23.079Z,5.70
2024-04-05T09:50:52.891Z,6.80
2024-04-05T09:53:20.890Z,8.70
2024-04-05T09:55:50.572Z,5.10
2024-04-05T09:58:19.036Z,6.80
2024-04-05T10:00:49.426Z,4.90
2024-04-05T10:03:19.123Z,7.50
2024-04-05T10:05:50.725Z,7.10
2024-04-05T10:08:20.215Z,5.70
2024-04-05T10:10:50.795Z,9.10
2024-04-05T10:13:25.667Z,6.40
2024-04-05T10:15:54.492Z,7.70
2024-04-05T10:18:31.521Z,6.90
2024-04-05T10:21:04.664Z,7.10
2024-04-05T10:23:34.397Z,14.50
2024-04-05T10:26:12.431Z,19.30
2024-04-05T10:28:41.588Z,15.60
2024-04-05T10:31:12.652Z,17.40
2024-04-05T10:33:47.792Z,7.10
2024-04-05T10:36:16.119Z,8.90
2024-04-05T10:41:19.872Z,8.10
2024-04-05T10:43:48.563Z,3.60
2024-04-05T10:46:19.112Z,5.60
2024-04-05T10:48:57.335Z,14.70
2024-04-05T10:51:26.322Z,5.90
2024-04-05T10:53:56.745Z,11.30
2024-04-05T10:56:25.579Z,14.00
2024-04-05T10:58:55.082Z,12.00
2024-04-05T11:01:27.342Z,16.60
2024-04-05T11:03:57.280Z,11.50
2024-04-05T11:06:26.939Z,12.00
2024-04-05T11:11:30.094Z,11.40
2024-04-05T11:14:07.403Z,8.40
2024-04-05T11:16:41.024Z,11.90
2024-04-05T11:19:09.869Z,10.70
2024-04-05T11:21:38.110Z,10.40
2024-04-05T11:26:50.313Z,12.30
2024-04-05T11:29:20.539Z,8.90
2024-04-05T11:31:49.216Z,6.10
2024-04-05T11:34:18.560Z,4.80
2024-04-05T11:36:54.545Z,7.70
2024-04-05T11:39:26.204Z,8.60
2024-04-05T11:41:56.073Z,5.20
2024-04-05T11:44:29.043Z,6.50
2024-04-05T11:46:57.329Z,7.50
2024-04-05T11:49:26.709Z,9.40
2024-04-05T11:51:55.433Z,8.70
2024-04-05T11:56:52.639Z,3.80
2024-04-05T11:59:21.657Z,8.10
2024-04-05T12:01:50.423Z,13.60
2024-04-05T12:04:22.195Z,3.20
2024-04-05T12:06:52.513Z,9.70
2024-04-05T12:09:21.356Z,6.90
2024-04-05T12:11:50.158Z,5.20
2024-04-05T12:14:19.930Z,4.90
2024-04-05T12:19:20.985Z,5.70
2024-04-05T12:21:49.686Z,8.40
2024-04-05T12:24:18.490Z,6.50
2024-04-05T12:26:47.723Z,3.20
2024-04-05T12:29:16.345Z,9.20
2024-04-05T12:31:44.271Z,3.60
2024-04-05T12:34:12.183Z,12.50
2024-04-05T12:36:40.755Z,11.70
2024-04-05T12:39:17.773Z,9.10
2024-04-05T12:41:45.687Z,7.70
2024-04-05T12:44:13.819Z,9.10
2024-04-05T12:46:43.289Z,15.70
2024-04-05T12:49:18.017Z,7.80
2024-04-05T12:52:15.086Z,10.50
2024-04-05T12:57:16.687Z,9.20
2024-04-05T12:59:44.633Z,12.40
2024-04-05T13:02:12.683Z,17.60
2024-04-05T13:04:40.594Z,16.60
2024-04-05T13:07:08.769Z,11.40
2024-04-05T13:09:36.741Z,9.60
2024-04-05T13:12:04.799Z,16.90
2024-04-05T13:17:00.928Z,6.20
2024-04-05T13:19:28.959Z,12.80
2024-04-05T13:21:56.820Z,12.80
2024-04-05T13:24:24.772Z,10.50
2024-04-05T13:26:53.057Z,9.60
2024-04-05T13:29:21.711Z,15.10
2024-04-05T13:31:49.690Z,8.00
2024-04-05T13:34:17.720Z,11.90
2024-04-05T13:39:16.156Z,5.70
2024-04-05T13:41:44.780Z,12.80
2024-04-05T13:44:12.681Z,17.30
2024-04-05T13:46:40.527Z,10.90
2024-04-05T13:49:10.407Z,11.40
2024-04-05T13:51:40.038Z,5.60
2024-04-05T13:54:10.881Z,9.00
2024-04-05T13:56:40.714Z,6.20
2024-04-05T13:59:17.875Z,22.90
2024-04-05T14:01:48.463Z,10.70
2024-04-05T14:04:18.104Z,8.40
2024-04-05T14:09:19.544Z,14.00
2024-04-05T14:11:52.703Z,8.60
2024-04-05T14:14:21.963Z,21.80
2024-04-05T14:16:50.953Z,10.70
2024-04-05T14:19:18.992Z,11.00
2024-04-05T14:21:48.763Z,8.90
2024-04-05T14:24:21.676Z,9.30
2024-04-05T14:26:50.614Z,8.40
2024-04-05T14:29:18.862Z,22.60
2024-04-05T14:34:14.992Z,6.20
2024-04-05T14:36:43.803Z,5.70
2024-04-05T14:39:11.916Z,9.70
2024-04-05T14:41:39.954Z,12.40
2024-04-05T14:44:08.776Z,7.70
2024-04-05T14:46:36.852Z,6.60
2024-04-05T14:51:33.972Z,5.90
2024-04-05T14:54:03.244Z,5.60
2024-04-05T14:56:31.303Z,4.30
2024-04-05T15:01:27.906Z,5.40
2024-04-05T15:03:55.914Z,7.50
2024-04-05T15:06:23.996Z,8.30
2024-04-05T15:08:51.929Z,8.70
2024-04-05T15:11:20.120Z,7.50
2024-04-05T15:13:48.164Z,8.00
2024-04-05T15:16:17.198Z,11.70
2024-04-05T15:18:45.336Z,15.50
2024-04-05T15:23:41.804Z,8.40
2024-04-05T15:26:09.895Z,11.20
2024-04-05T15:28:39.240Z,13.30
2024-04-05T15:31:07.226Z,18.50
2024-04-05T15:33:38.222Z,20.80
2024-04-05T15:36:06.566Z,12.50
2024-04-05T15:38:35.909Z,20.40
2024-04-05T15:41:08.293Z,14.00
2024-04-05T15:43:37.379Z,8.60
2024-04-05T15:46:06.067Z,4.40
2024-04-05T15:48:33.946Z,8.30
2024-04-05T15:51:06.069Z,7.40
2024-04-05T15:53:34.542Z,3.50
2024-04-05T15:56:04.080Z,2.80
2024-04-05T15:58:32.113Z,2.00
2024-04-05T16:01:04.325Z,3.90
2024-04-05T16:03:33.270Z,8.90
2024-04-05T16:06:01.287Z,1.90
2024-04-05T16:08:29.325Z,2.10
2024-04-05T16:11:01.358Z,4.30
2024-04-05T16:13:29.308Z,5.40
2024-04-05T16:16:00.519Z,6.20
2024-04-05T16:18:29.106Z,5.10
2024-04-05T16:21:13.567Z,5.50
2024-04-05T16:23:43.102Z,9.70
2024-04-05T16:26:11.851Z,9.10
2024-04-05T16:28:44.530Z,7.20
2024-04-05T16:31:15.661Z,7.30
2024-04-05T16:33:44.492Z,7.00
2024-04-05T16:36:12.723Z,5.80
2024-04-05T16:38:41.025Z,6.60
2024-04-05T16:43:39.012Z,6.90
2024-04-05T16:46:11.230Z,13.30
2024-04-05T16:48:39.860Z,4.40
2024-04-05T16:51:08.454Z,8.90
2024-04-05T16:53:39.603Z,6.50
2024-04-05T16:56:08.335Z,8.30
2024-04-05T16:58:36.434Z,5.80
2024-04-05T17:01:06.096Z,7.20
2024-04-05T17:03:34.717Z,3.70
2024-04-05T17:06:23.253Z,4.30
2024-04-05T17:08:51.796Z,6.10
2024-04-05T17:11:19.807Z,9.40
2024-04-05T17:13:56.853Z,8.60
2024-04-05T17:16:24.763Z,8.60
2024-04-05T17:18:52.864Z,7.80
2024-04-05T17:23:50.342Z,3.70
2024-04-05T17:26:20.068Z,5.30
2024-04-05T17:28:49.757Z,6.40
2024-04-05T17:31:19.901Z,6.30
2024-04-05T17:33:48.138Z,7.30
2024-04-05T17:36:16.310Z,8.50
2024-04-05T17:38:50.586Z,10.60
2024-04-05T17:41:18.610Z,15.50
2024-04-05T17:43:47.328Z,13.90
2024-04-05T17:46:16.470Z,8.60
2024-04-05T17:48:44.622Z,5.50
2024-04-05T17:51:12.600Z,10.10
2024-04-05T17:53:40.941Z,8.00
2024-04-05T17:58:38.718Z,10.10
2024-04-05T18:01:06.715Z,8.30
2024-04-05T18:06:03.020Z,6.30
2024-04-05T18:08:31.039Z,6.80
2024-04-05T18:10:59.153Z,9.80
2024-04-05T18:13:27.126Z,9.10
2024-04-05T18:15:56.120Z,7.50
2024-04-05T18:18:24.077Z,7.50
2024-04-05T18:20:52.052Z,6.00
2024-04-05T18:23:20.063Z,10.80
2024-04-05T18:25:48.132Z,6.00
2024-04-05T18:28:16.823Z,7.10
2024-04-05T18:30:44.861Z,8.30
2024-04-05T18:33:12.888Z,8.30
2024-04-05T18:35:40.855Z,7.10
2024-04-05T18:38:09.036Z,7.00
2024-04-05T18:40:37.480Z,18.80
2024-04-05T18:43:05.652Z,15.20
2024-04-05T18:45:33.662Z,8.70
2024-04-05T18:48:10.602Z,12.80
2024-04-05T18:50:38.607Z,10.80
2024-04-05T18:53:06.669Z,13.90
2024-04-05T18:55:37.640Z,6.30
2024-04-05T18:58:06.042Z,6.70
2024-04-05T19:03:05.203Z,8.20
2024-04-05T19:05:33.396Z,9.30
2024-04-05T19:08:01.454Z,9.10
2024-04-05T19:10:29.566Z,7.50
2024-04-05T19:12:57.610Z,10.80
2024-04-05T19:15:26.176Z,11.10
2024-04-05T19:17:54.154Z,7.60
2024-04-05T19:20:22.806Z,10.50
2024-04-05T19:22:50.768Z,9.00
2024-04-05T19:25:18.773Z,11.90
2024-04-05T19:27:46.805Z,10.90
2024-04-05T19:30:14.938Z,8.10
2024-04-05T19:32:43.335Z,7.30
2024-04-05T19:37:44.954Z,8.30
2024-04-05T19:40:14.791Z,10.20
2024-04-05T19:42:42.999Z,11.00
2024-04-05T19:45:15.913Z,16.60
2024-04-05T19:47:44.060Z,11.40
2024-04-05T19:50:12.123Z,17.20
2024-04-05T19:52:40.174Z,19.50
2024-04-05T19:55:09.510Z,11.30
2024-04-05T19:57:37.561Z,14.90
2024-04-05T20:00:06.170Z,11.00
2024-04-05T20:02:40.680Z,14.90
2024-04-05T20:05:09.229Z,14.70
2024-04-05T20:07:38.003Z,10.20
2024-04-05T20:12:36.872Z,17.50
2024-04-05T20:15:05.296Z,14.40
2024-04-05T20:20:04.412Z,21.50
2024-04-05T20:22:32.614Z,18.50
2024-04-05T20:25:00.608Z,16.90
2024-04-05T20:27:28.761Z,17.40
2024-04-05T20:30:15.483Z,9.30
2024-04-05T20:32:43.986Z,14.90
2024-04-05T20:35:11.981Z,12.80
2024-04-05T20:37:40.209Z,15.20
2024-04-05T20:40:08.908Z,15.80
2024-04-05T20:42:36.832Z,17.40
2024-04-05T20:45:05.180Z,13.10
2024-04-05T20:47:33.909Z,15.50
2024-04-05T20:50:02.037Z,10.40
2024-04-05T20:52:30.527Z,12.30
2024-04-05T20:54:58.535Z,15.00
2024-04-05T20:57:26.652Z,15.40
2024-04-05T20:59:54.684Z,16.10
2024-04-05T21:02:22.721Z,17.80
2024-04-05T21:04:50.713Z,14.00
2024-04-05T21:07:18.694Z,20.00
2024-04-05T21:09:46.782Z,19.30
2024-04-05T21:12:15.281Z,20.60
2024-04-05T21:17:11.319Z,19.00
2024-04-05T21:19:47.603Z,16.00
2024-04-05T21:22:15.974Z,15.40
2024-04-05T21:24:45.028Z,17.70
2024-04-05T21:27:13.069Z,14.10
2024-04-05T21:29:41.182Z,15.90
2024-04-05T21:32:12.932Z,19.10
2024-04-05T21:34:40.936Z,16.00
2024-04-05T21:37:08.903Z,14.70
2024-04-05T21:39:37.032Z,20.10
2024-04-05T21:42:05.552Z,19.10
2024-04-05T21:44:33.510Z,21.20
2024-04-05T21:47:01.518Z,19.00
2024-04-05T21:52:00.464Z,19.20
2024-04-05T21:54:28.425Z,13.50
2024-04-05T21:56:56.744Z,16.30
2024-04-05T21:59:25.407Z,17.80
2024-04-05T22:01:53.977Z,17.30
2024-04-05T22:04:22.010Z,15.70
2024-04-05T22:06:49.954Z,17.10
2024-04-05T22:09:18.338Z,18.70
2024-04-05T22:11:46.523Z,16.90
2024-04-05T22:14:20.508Z,20.00
2024-04-05T22:16:52.383Z,17.60
2024-04-05T22:21:48.356Z,15.30
2024-04-05T22:24:16.318Z,16.50
2024-04-05T22:26:44.523Z,18.80
2024-04-05T22:29:12.459Z,16.80
2024-04-05T22:31:40.772Z,17.70
2024-04-05T22:34:08.878Z,18.00
2024-04-05T22:36:36.865Z,21.80
2024-04-05T22:39:08.932Z,20.20
2024-04-05T22:41:38.576Z,24.00
2024-04-05T22:44:06.545Z,18.90
2024-04-05T22:46:34.515Z,21.90
2024-04-05T22:49:02.581Z,25.50
2024-04-05T22:51:30.736Z,24.60
2024-04-05T22:53:58.709Z,24.70
2024-04-05T22:56:26.764Z,23.70
2024-04-05T22:58:54.765Z,25.60
2024-04-05T23:01:22.803Z,22.90
2024-04-05T23:03:50.774Z,28.20
2024-04-05T23:06:23.800Z,23.00
2024-04-05T23:08:51.969Z,24.90
2024-04-05T23:11:20.021Z,28.10
2024-04-05T23:13:48.214Z,27.30
2024-04-05T23:16:17.185Z,29.30
2024-04-05T23:18:45.201Z,22.70
2024-04-05T23:21:13.211Z,23.70
2024-04-05T23:23:41.233Z,23.50
2024-04-05T23:26:09.526Z,27.10
2024-04-05T23:28:38.089Z,24.80
2024-04-05T23:31:06.556Z,28.70
2024-04-05T23:33:34.696Z,27.80
2024-04-05T23:36:03.060Z,29.60
2024-04-05T23:38:31.118Z,28.60
2024-04-05T23:40:59.083Z,30.50
2024-04-05T23:43:27.123Z,30.90
2024-04-05T23:45:55.095Z,43.50
2024-04-05T23:48:23.426Z,35.00
2024-04-05T23:50:51.497Z,30.10
2024-04-05T23:53:19.744Z,32.00
2024-04-05T23:55:47.856Z,35.30
2024-04-05T23:58:15.848Z,35.20
